createdAt,value
2019-05-09T00:01:47.899Z,97650.88
2019-05-09T00:04:15.423Z,97655.94
2019-05-09T00:06:43.161Z,97648.58
2019-05-09T00:09:10.327Z,97653.33
2019-05-09T00:11:39.425Z,97656.80
2019-05-09T00:14:07.961Z,97656.60
2019-05-09T00:16:35.453Z,97649.02
2019-05-09T00:19:03.437Z,97649.07
2019-05-09T00:21:33.272Z,97657.89
2019-05-09T00:24:00.057Z,97652.29
2019-05-09T00:26:27.538Z,97646.98
2019-05-09T00:28:55.468Z,97647.03
2019-05-09T00:31:37.814Z,97649.00
2019-05-09T00:34:05.322Z,97654.98
2019-05-09T00:36:33.460Z,97649.20
2019-05-09T00:39:00.187Z,97652.19
2019-05-09T00:41:27.648Z,97654.21
2019-05-09T00:43:55.085Z,97653.80
2019-05-09T00:46:23.626Z,97655.91
2019-05-09T00:48:55.309Z,97648.81
2019-05-09T00:51:23.394Z,97647.77
2019-05-09T00:53:50.274Z,97648.65
2019-05-09T00:56:17.697Z,97653.42
2019-05-09T00:58:45.209Z,97664.21
2019-05-09T01:01:13.305Z,97662.77
2019-05-09T01:03:40.095Z,97660.61
2019-05-09T01:06:07.523Z,97660.72
2019-05-09T01:08:35.020Z,97661.55
2019-05-09T01:11:11.740Z,97658.52
2019-05-09T01:13:30.470Z,97659.33
2019-05-09T01:15:57.934Z,97659.77
2019-05-09T01:18:25.352Z,97665.45
2019-05-09T01:20:53.158Z,97656.00
2019-05-09T01:23:20.883Z,97659.81
2019-05-09T01:25:48.398Z,97659.14
2019-05-09T01:28:15.845Z,97655.23
2019-05-09T01:30:43.859Z,97661.37
2019-05-09T01:33:10.809Z,97661.89
2019-05-09T01:35:38.261Z,97655.05
2019-05-09T01:38:05.705Z,97662.81
2019-05-09T01:40:33.257Z,97655.64
2019-05-09T01:43:01.019Z,97653.58
2019-05-09T01:45:28.496Z,97656.12
2019-05-09T01:47:55.911Z,97650.36
2019-05-09T01:50:23.452Z,97651.17
2019-05-09T01:52:50.821Z,97648.03
2019-05-09T01:55:18.274Z,97652.87
2019-05-09T01:57:47.907Z,97649.89
2019-05-09T02:00:13.305Z,97647.09
2019-05-09T02:02:40.632Z,97644.78
2019-05-09T02:05:08.071Z,97654.00
2019-05-09T02:07:35.508Z,97640.77
2019-05-09T02:10:03.493Z,97645.71
2019-05-09T02:12:30.421Z,97649.64
2019-05-09T02:15:00.805Z,97644.36
2019-05-09T02:17:30.053Z,97647.70
2019-05-09T02:19:57.495Z,97647.47
2019-05-09T02:22:30.488Z,97641.55
2019-05-09T02:24:57.980Z,97641.25
2019-05-09T02:27:25.406Z,97640.52
2019-05-09T02:29:54.433Z,97636.09
2019-05-09T02:32:23.739Z,97639.64
2019-05-09T02:34:48.270Z,97637.08
2019-05-09T02:37:18.576Z,97633.54
2019-05-09T02:39:43.214Z,97634.45
2019-05-09T02:42:13.943Z,97627.62
2019-05-09T02:44:39.532Z,97633.09
2019-05-09T02:47:08.747Z,97635.80
2019-05-09T02:49:33.848Z,97633.14
2019-05-09T02:52:02.525Z,97629.55
2019-05-09T02:54:30.200Z,97627.71
2019-05-09T02:56:58.233Z,97631.30
2019-05-09T02:59:29.725Z,97629.19
2019-05-09T03:02:09.586Z,97626.89
2019-05-09T03:04:38.919Z,97636.42
2019-05-09T03:07:03.608Z,97626.64
2019-05-09T03:09:31.047Z,97623.03
2019-05-09T03:11:59.255Z,97620.83
2019-05-09T03:14:28.648Z,97616.22
2019-05-09T03:16:53.441Z,97617.05
2019-05-09T03:19:20.892Z,97614.22
2019-05-09T03:21:49.707Z,97610.61
2019-05-09T03:24:18.447Z,97609.58
2019-05-09T03:26:44.690Z,97607.98
2019-05-09T03:29:12.974Z,97611.62
2019-05-09T03:31:40.441Z,97613.39
2019-05-09T03:34:09.470Z,97612.30
2019-05-09T03:36:35.340Z,97617.98
2019-05-09T03:39:03.270Z,97612.50
2019-05-09T03:41:30.704Z,97612.41
2019-05-09T03:43:58.699Z,97613.22
2019-05-09T03:46:28.020Z,97610.30
2019-05-09T03:49:03.261Z,97616.20
2019-05-09T03:51:30.723Z,97617.01
2019-05-09T03:53:58.188Z,97620.16
2019-05-09T03:56:37.473Z,97614.67
2019-05-09T03:59:03.694Z,97622.98
2019-05-09T04:01:31.174Z,97622.98
2019-05-09T04:03:58.637Z,97618.67
2019-05-09T04:06:28.148Z,97625.20
2019-05-09T04:08:54.003Z,97621.11
2019-05-09T04:11:21.029Z,97617.92
2019-05-09T04:13:48.481Z,97608.50
2019-05-09T04:16:18.844Z,97617.00
2019-05-09T04:18:43.403Z,97611.62
2019-05-09T04:21:10.850Z,97620.25
2019-05-09T04:23:38.319Z,97624.89
2019-05-09T04:26:07.548Z,97624.38
2019-05-09T04:28:34.201Z,97623.37
2019-05-09T04:31:01.636Z,97623.55
2019-05-09T04:33:29.067Z,97620.75
2019-05-09T04:35:57.958Z,97620.66
2019-05-09T04:38:23.970Z,97618.06
2019-05-09T04:40:51.421Z,97626.30
2019-05-09T04:43:26.911Z,97624.56
2019-05-09T04:45:49.148Z,97625.47
2019-05-09T04:48:24.018Z,97620.31
2019-05-09T04:50:49.754Z,97624.88
2019-05-09T04:53:18.316Z,97631.75
2019-05-09T04:55:44.706Z,97624.02
2019-05-09T04:58:12.119Z,97635.84
2019-05-09T05:00:57.251Z,97634.60
2019-05-09T05:03:24.051Z,97635.59
2019-05-09T05:05:51.509Z,97634.92
2019-05-09T05:08:18.948Z,97645.13
2019-05-09T05:10:47.754Z,97641.66
2019-05-09T05:13:25.621Z,97639.47
2019-05-09T05:15:41.352Z,97645.56
2019-05-09T05:18:08.798Z,97650.16
2019-05-09T05:20:37.985Z,97642.97
2019-05-09T05:23:03.720Z,97645.47
2019-05-09T05:25:32.546Z,97640.72
2019-05-09T05:28:00.057Z,97646.11
2019-05-09T05:30:28.410Z,97638.98
2019-05-09T05:32:57.682Z,97648.19
2019-05-09T05:35:23.246Z,97652.27
2019-05-09T05:37:52.865Z,97648.30
2019-05-09T05:40:20.719Z,97649.78
2019-05-09T05:42:48.153Z,97646.28
2019-05-09T05:45:17.971Z,97649.85
2019-05-09T05:47:43.054Z,97645.59
2019-05-09T05:50:10.512Z,97659.73
2019-05-09T05:52:37.928Z,97652.74
2019-05-09T05:55:07.566Z,97654.63
2019-05-09T05:57:33.525Z,97648.09
2019-05-09T06:00:01.022Z,97647.31
2019-05-09T06:02:28.461Z,97641.81
2019-05-09T06:04:57.918Z,97650.98
2019-05-09T06:07:24.806Z,97642.64
2019-05-09T06:09:52.287Z,97651.33
2019-05-09T06:12:19.726Z,97657.12
2019-05-09T06:14:48.111Z,97649.50
2019-05-09T06:17:17.930Z,97656.75
2019-05-09T06:19:43.661Z,97639.97
2019-05-09T06:22:11.099Z,97651.57
2019-05-09T06:24:38.950Z,97649.77
2019-05-09T06:27:09.835Z,97647.47
2019-05-09T06:29:33.540Z,97653.55
2019-05-09T06:32:01.110Z,97663.19
2019-05-09T06:34:28.603Z,97656.69
2019-05-09T06:36:58.528Z,97662.22
2019-05-09T06:39:23.506Z,97664.95
2019-05-09T06:41:51.720Z,97667.37
2019-05-09T06:44:33.009Z,97667.19
2019-05-09T06:47:00.462Z,97659.11
2019-05-09T06:49:31.595Z,97674.93
2019-05-09T06:51:58.032Z,97674.98
2019-05-09T06:54:24.445Z,97669.14
2019-05-09T06:56:51.925Z,97672.80
2019-05-09T06:59:19.374Z,97667.43
2019-05-09T07:02:02.518Z,97672.42
2019-05-09T07:04:38.081Z,97673.59
2019-05-09T07:07:19.375Z,97670.88
2019-05-09T07:09:47.974Z,97662.02
2019-05-09T07:12:14.346Z,97669.30
2019-05-09T07:14:42.081Z,97669.23
2019-05-09T07:17:09.235Z,97671.73
2019-05-09T07:19:38.366Z,97680.55
2019-05-09T07:22:14.115Z,97675.78
2019-05-09T07:24:48.070Z,97674.62
2019-05-09T07:27:14.641Z,97670.70
2019-05-09T07:29:42.084Z,97664.70
2019-05-09T07:32:14.941Z,97669.80
2019-05-09T07:34:44.825Z,97673.34
2019-05-09T07:37:12.301Z,97673.36
2019-05-09T07:39:39.731Z,97662.29
2019-05-09T07:42:07.801Z,97663.52
2019-05-09T07:44:46.189Z,97657.64
2019-05-09T07:47:02.155Z,97657.96
2019-05-09T07:49:29.603Z,97663.13
2019-05-09T07:51:59.093Z,97661.41
2019-05-09T07:54:25.721Z,97670.67
2019-05-09T07:56:52.022Z,97664.17
2019-05-09T07:59:19.452Z,97668.56
2019-05-09T08:01:48.731Z,97663.12
2019-05-09T08:04:14.345Z,97660.02
2019-05-09T08:06:41.785Z,97663.71
2019-05-09T08:09:09.249Z,97663.30
2019-05-09T08:11:37.664Z,97658.67
2019-05-09T08:16:27.927Z,97659.64
2019-05-09T08:18:54.758Z,97653.17
2019-05-09T08:21:22.218Z,97657.27
2019-05-09T08:23:49.678Z,97657.09
2019-05-09T08:26:18.831Z,97654.42
2019-05-09T08:28:44.646Z,97654.79
2019-05-09T08:31:12.159Z,97666.89
2019-05-09T08:33:39.646Z,97663.59
2019-05-09T08:36:08.621Z,97657.17
2019-05-09T08:38:34.565Z,97659.81
2019-05-09T08:41:09.051Z,97659.58
2019-05-09T08:43:34.342Z,97655.33
2019-05-09T08:46:01.767Z,97663.38
2019-05-09T08:48:29.227Z,97655.59
2019-05-09T08:50:58.260Z,97657.54
2019-05-09T08:53:24.152Z,97657.86
2019-05-09T08:55:51.624Z,97654.22
2019-05-09T08:58:19.864Z,97647.16
2019-05-09T09:00:49.065Z,97649.83
2019-05-09T09:03:14.439Z,97647.81
2019-05-09T09:05:43.385Z,97652.99
2019-05-09T09:08:09.365Z,97657.73
2019-05-09T09:10:38.570Z,97654.87
2019-05-09T09:13:04.260Z,97651.25
2019-05-09T09:15:56.116Z,97647.95
2019-05-09T09:17:59.211Z,97635.42
2019-05-09T09:20:28.749Z,97635.48
2019-05-09T09:22:54.298Z,97632.36
2019-05-09T09:25:21.717Z,97634.10
2019-05-09T09:27:51.111Z,97630.94
2019-05-09T09:30:24.517Z,97634.27
2019-05-09T09:32:47.619Z,97629.09
2019-05-09T09:35:12.456Z,97629.53
2019-05-09T09:37:48.588Z,97624.70
2019-05-09T09:40:08.673Z,97633.47
2019-05-09T09:42:34.856Z,97639.52
2019-05-09T09:45:02.335Z,97646.31
2019-05-09T09:47:29.795Z,97645.92
2019-05-09T09:49:59.493Z,97627.63
2019-05-09T09:52:24.721Z,97635.38
2019-05-09T09:54:52.177Z,97627.23
2019-05-09T09:57:19.599Z,97638.31
2019-05-09T09:59:48.581Z,97623.88
2019-05-09T10:02:15.415Z,97632.09
2019-05-09T10:04:42.869Z,97622.72
2019-05-09T10:07:10.287Z,97624.53
2019-05-09T10:09:37.749Z,97618.16
2019-05-09T10:12:05.213Z,97621.13
2019-05-09T10:14:32.677Z,97625.27
2019-05-09T10:17:21.491Z,97624.98
2019-05-09T10:19:51.349Z,97626.40
2019-05-09T10:22:27.346Z,97624.02
2019-05-09T10:24:54.862Z,97627.66
2019-05-09T10:27:22.340Z,97619.24
2019-05-09T10:29:49.880Z,97626.03
2019-05-09T10:32:18.238Z,97627.72
2019-05-09T10:34:44.964Z,97619.00
2019-05-09T10:37:12.407Z,97627.42
2019-05-09T10:39:39.846Z,97621.89
2019-05-09T10:42:22.175Z,97628.94
2019-05-09T10:44:49.642Z,97624.64
2019-05-09T10:47:22.577Z,97621.64
2019-05-09T10:49:50.714Z,97620.09
2019-05-09T10:52:19.053Z,97632.75
2019-05-09T10:54:46.524Z,97627.48
2019-05-09T10:57:13.996Z,97625.86
2019-05-09T10:59:41.450Z,97626.17
2019-05-09T11:02:24.436Z,97630.33
2019-05-09T11:04:51.875Z,97626.66
2019-05-09T11:07:19.313Z,97626.70
2019-05-09T11:09:48.025Z,97633.06
2019-05-09T11:12:14.249Z,97634.71
2019-05-09T11:14:41.674Z,97637.45
2019-05-09T11:17:17.561Z,97638.64
2019-05-09T11:19:36.586Z,97636.17
2019-05-09T11:22:04.067Z,97636.02
2019-05-09T11:24:45.359Z,97642.06
2019-05-09T11:26:59.050Z,97650.05
2019-05-09T11:29:28.149Z,97647.50
2019-05-09T11:31:53.970Z,97642.28
2019-05-09T11:34:21.962Z,97645.82
2019-05-09T11:36:50.137Z,97655.55
2019-05-09T11:39:35.197Z,97650.16
2019-05-09T11:41:45.064Z,97652.61
2019-05-09T11:44:12.529Z,97657.07
2019-05-09T11:46:39.965Z,97662.19
2019-05-09T11:49:08.358Z,97665.50
2019-05-09T11:51:34.946Z,97666.00
2019-05-09T11:54:02.398Z,97664.42
2019-05-09T11:56:29.828Z,97669.16
2019-05-09T11:58:57.896Z,97666.72
2019-05-09T12:01:24.877Z,97664.02
2019-05-09T12:03:52.642Z,97672.96
2019-05-09T12:06:20.671Z,97675.02
2019-05-09T12:08:48.392Z,97675.83
2019-05-09T12:11:18.233Z,97674.23
2019-05-09T12:13:42.913Z,97670.73
2019-05-09T12:16:10.374Z,97672.47
2019-05-09T12:18:37.926Z,97673.61
2019-05-09T12:21:05.654Z,97673.91
2019-05-09T12:23:33.094Z,97676.09
2019-05-09T12:26:00.525Z,97675.05
2019-05-09T12:28:28.154Z,97678.05
2019-05-09T12:30:55.581Z,97687.92
2019-05-09T12:33:23.084Z,97680.88
2019-05-09T12:35:51.242Z,97686.36
2019-05-09T12:38:18.714Z,97692.17
2019-05-09T12:40:48.159Z,97688.94
2019-05-09T12:43:13.716Z,97688.10
2019-05-09T12:45:41.143Z,97687.12
2019-05-09T12:48:14.808Z,97689.29
2019-05-09T12:50:38.556Z,97688.38
2019-05-09T12:53:03.514Z,97699.89
2019-05-09T12:55:30.978Z,97705.14
2019-05-09T12:57:59.445Z,97698.51
2019-05-09T13:00:28.344Z,97703.59
2019-05-09T13:02:53.427Z,97705.42
2019-05-09T13:05:21.850Z,97706.45
2019-05-09T13:07:49.307Z,97708.84
2019-05-09T13:10:19.453Z,97709.05
2019-05-09T13:12:44.273Z,97710.66
2019-05-09T13:15:11.778Z,97715.84
2019-05-09T13:17:40.124Z,97714.02
2019-05-09T13:20:08.053Z,97728.57
2019-05-09T13:22:35.031Z,97716.87
2019-05-09T13:25:03.100Z,97719.68
2019-05-09T13:27:29.944Z,97722.09
2019-05-09T13:29:57.444Z,97723.58
2019-05-09T13:32:24.904Z,97721.12
2019-05-09T13:34:52.534Z,97723.36
2019-05-09T13:37:20.046Z,97720.06
2019-05-09T13:39:47.706Z,97723.25
2019-05-09T13:42:15.068Z,97725.99
2019-05-09T13:44:42.559Z,97729.25
2019-05-09T13:47:11.052Z,97730.88
2019-05-09T13:49:39.489Z,97739.58
2019-05-09T13:52:05.322Z,97733.02
2019-05-09T13:54:32.415Z,97737.84
2019-05-09T13:57:01.423Z,97737.09
2019-05-09T13:59:30.031Z,97730.09
2019-05-09T14:01:54.914Z,97734.24
2019-05-09T14:04:23.105Z,97738.22
2019-05-09T14:06:50.585Z,97741.23
2019-05-09T14:09:19.904Z,97738.94
2019-05-09T14:11:47.954Z,97750.45
2019-05-09T14:14:14.872Z,97750.49
2019-05-09T14:16:42.321Z,97756.91
2019-05-09T14:19:30.050Z,97760.84
2019-05-09T14:21:37.294Z,97761.45
2019-05-09T14:24:14.091Z,97765.39
2019-05-09T14:26:32.328Z,97766.19
2019-05-09T14:28:59.813Z,97773.70
2019-05-09T14:31:32.108Z,97771.61
2019-05-09T14:33:54.864Z,97770.39
2019-05-09T14:36:22.383Z,97777.52
2019-05-09T14:38:49.947Z,97764.06
2019-05-09T14:41:19.240Z,97778.98
2019-05-09T14:43:44.974Z,97776.80
2019-05-09T14:46:12.449Z,97780.05
2019-05-09T14:48:39.942Z,97779.20
2019-05-09T14:51:07.791Z,97781.99
2019-05-09T14:53:34.926Z,97786.97
2019-05-09T14:56:02.441Z,97786.16
2019-05-09T14:58:29.905Z,97792.53
2019-05-09T15:01:00.620Z,97781.31
2019-05-09T15:03:24.871Z,97788.41
2019-05-09T15:05:52.629Z,97785.66
2019-05-09T15:08:20.975Z,97787.98
2019-05-09T15:10:48.439Z,97792.61
2019-05-09T15:13:15.887Z,97793.04
2019-05-09T15:15:43.354Z,97794.73
2019-05-09T15:18:10.783Z,97792.38
2019-05-09T15:20:38.395Z,97787.89
2019-05-09T15:23:05.840Z,97799.70
2019-05-09T15:25:33.316Z,97800.02
2019-05-09T15:28:00.803Z,97813.48
2019-05-09T15:30:28.845Z,97811.80
2019-05-09T15:32:55.745Z,97816.92
2019-05-09T15:35:23.170Z,97815.16
2019-05-09T15:37:50.627Z,97810.78
2019-05-09T15:40:18.085Z,97814.75
2019-05-09T15:42:47.716Z,97814.04
2019-05-09T15:45:13.088Z,97812.58
2019-05-09T15:47:40.555Z,97816.38
2019-05-09T15:50:19.287Z,97816.05
2019-05-09T15:52:38.062Z,97820.63
2019-05-09T15:55:03.141Z,97832.45
2019-05-09T15:57:30.639Z,97822.24
2019-05-09T15:59:58.900Z,97824.94
2019-05-09T16:02:28.167Z,97831.25
2019-05-09T16:04:53.102Z,97822.72
2019-05-09T16:07:20.552Z,97828.71
2019-05-09T16:09:48.388Z,97825.88
2019-05-09T16:12:15.521Z,97821.17
2019-05-09T16:14:42.934Z,97828.92
2019-05-09T16:17:10.453Z,97836.22
2019-05-09T16:19:38.038Z,97832.78
2019-05-09T16:22:07.725Z,97831.38
2019-05-09T16:24:32.863Z,97840.82
2019-05-09T16:27:00.332Z,97837.42
2019-05-09T16:29:29.284Z,97837.72
2019-05-09T16:31:58.006Z,97833.86
2019-05-09T16:34:23.543Z,97829.82
2019-05-09T16:36:50.990Z,97842.94
2019-05-09T16:39:18.438Z,97832.52
2019-05-09T16:41:48.057Z,97845.90
2019-05-09T16:44:13.408Z,97849.95
2019-05-09T16:46:40.831Z,97841.05
2019-05-09T16:49:11.522Z,97848.78
2019-05-09T16:51:37.799Z,97856.80
2019-05-09T16:54:04.119Z,97854.60
2019-05-09T16:56:31.560Z,97852.01
2019-05-09T16:58:59.016Z,97859.87
2019-05-09T17:01:28.395Z,97850.73
2019-05-09T17:03:54.295Z,97856.17
2019-05-09T17:06:21.745Z,97852.52
2019-05-09T17:08:49.340Z,97860.65
2019-05-09T17:11:19.157Z,97860.06
2019-05-09T17:13:44.329Z,97866.66
2019-05-09T17:16:11.794Z,97870.73
2019-05-09T17:18:39.271Z,97868.91
2019-05-09T17:21:18.490Z,97869.58
2019-05-09T17:23:38.490Z,97876.20
2019-05-09T17:26:05.330Z,97875.00
2019-05-09T17:28:33.514Z,97876.84
2019-05-09T17:31:01.000Z,97878.87
2019-05-09T17:33:28.851Z,97881.64
2019-05-09T17:35:57.767Z,97890.06
2019-05-09T17:38:23.378Z,97890.42
2019-05-09T17:40:51.813Z,97901.19
2019-05-09T17:43:19.293Z,97902.94
2019-05-09T17:45:47.835Z,97901.80
2019-05-09T17:48:14.205Z,97897.33
2019-05-09T17:50:41.647Z,97906.55
2019-05-09T17:53:09.097Z,97915.09
2019-05-09T17:55:38.062Z,97916.66
2019-05-09T17:58:04.070Z,97919.79
2019-05-09T18:00:31.486Z,97922.59
2019-05-09T18:02:58.931Z,97917.08
2019-05-09T18:05:26.396Z,97919.49
2019-05-09T18:07:53.948Z,97925.69
2019-05-09T18:10:21.415Z,97930.47
2019-05-09T18:12:48.847Z,97925.55
2019-05-09T18:15:18.767Z,97937.44
2019-05-09T18:17:47.872Z,97940.98
2019-05-09T18:20:13.399Z,97939.20
2019-05-09T18:22:40.843Z,97934.56
2019-05-09T18:25:08.433Z,97942.37
2019-05-09T18:27:37.750Z,97949.25
2019-05-09T18:30:03.226Z,97955.91
2019-05-09T18:32:30.698Z,97956.95
2019-05-09T18:35:19.063Z,97963.19
2019-05-09T18:37:48.140Z,97967.73
2019-05-09T18:40:14.055Z,97971.41
2019-05-09T18:42:41.521Z,97977.08
2019-05-09T18:45:08.958Z,97978.94
2019-05-09T18:47:36.434Z,97977.80
2019-05-09T18:50:04.806Z,97973.30
2019-05-09T18:52:32.249Z,97982.55
2019-05-09T18:54:59.719Z,97976.48
2019-05-09T18:57:27.163Z,97980.98
2019-05-09T18:59:54.606Z,97980.95
2019-05-09T19:02:22.229Z,97988.29
2019-05-09T19:04:49.703Z,97982.50
2019-05-09T19:07:22.199Z,97987.99
2019-05-09T19:09:44.649Z,97988.89
2019-05-09T19:12:12.105Z,97986.58
2019-05-09T19:14:39.552Z,97986.16
2019-05-09T19:17:23.581Z,97987.50
2019-05-09T19:20:06.695Z,98002.53
2019-05-09T19:22:34.177Z,98004.20
2019-05-09T19:25:01.626Z,98019.30
2019-05-09T19:27:29.511Z,98029.42
2019-05-09T19:29:56.966Z,98027.14
2019-05-09T19:32:24.438Z,98043.55
2019-05-09T19:34:51.909Z,98056.37
2019-05-09T19:37:19.341Z,98055.94
2019-05-09T19:39:46.835Z,98060.89
2019-05-09T19:42:17.289Z,98063.77
2019-05-09T19:44:44.732Z,98071.67
2019-05-09T19:47:12.197Z,98077.86
2019-05-09T19:49:39.646Z,98080.30
2019-05-09T19:52:07.094Z,98104.48
2019-05-09T19:54:34.600Z,98083.58
2019-05-09T19:57:02.026Z,98088.48
2019-05-09T19:59:30.137Z,98088.06
2019-05-09T20:01:57.607Z,98084.92
2019-05-09T20:04:25.125Z,98089.54
2019-05-09T20:06:52.595Z,98094.77
2019-05-09T20:09:20.403Z,98097.98
2019-05-09T20:11:48.776Z,98102.42
2019-05-09T20:14:16.683Z,98104.22
2019-05-09T20:16:48.485Z,98109.99
2019-05-09T20:19:15.939Z,98114.22
2019-05-09T20:21:43.394Z,98116.41
2019-05-09T20:24:10.879Z,98123.23
2019-05-09T20:26:38.369Z,98127.40
2019-05-09T20:29:05.894Z,98133.67
2019-05-09T20:31:33.407Z,98142.70
2019-05-09T20:34:00.930Z,98147.44
2019-05-09T20:36:28.445Z,98151.27
2019-05-09T20:38:55.890Z,98154.86
2019-05-09T20:41:23.343Z,98160.41
2019-05-09T20:43:50.795Z,98163.41
2019-05-09T20:46:18.221Z,98172.05
2019-05-09T20:48:45.668Z,98170.30
2019-05-09T20:51:13.098Z,98176.64
2019-05-09T20:53:40.519Z,98185.23
2019-05-09T20:56:07.999Z,98178.75
2019-05-09T20:58:35.432Z,98181.41
2019-05-09T21:01:03.058Z,98184.13
2019-05-09T21:03:30.538Z,98194.31
2019-05-09T21:05:57.992Z,98191.05
2019-05-09T21:08:25.413Z,98195.08
2019-05-09T21:10:52.955Z,98195.59
2019-05-09T21:13:20.574Z,98189.79
2019-05-09T21:15:48.472Z,98196.13
2019-05-09T21:18:15.926Z,98202.72
2019-05-09T21:20:43.380Z,98207.33
2019-05-09T21:23:23.943Z,98215.09
2019-05-09T21:25:38.327Z,98209.05
2019-05-09T21:28:05.789Z,98218.47
2019-05-09T21:30:33.213Z,98220.98
2019-05-09T21:33:00.637Z,98217.98
2019-05-09T21:35:28.094Z,98224.59
2019-05-09T21:37:55.549Z,98217.17
2019-05-09T21:40:23.033Z,98224.55
2019-05-09T21:42:50.473Z,98228.03
2019-05-09T21:45:17.934Z,98222.92
2019-05-09T21:47:45.393Z,98232.09
2019-05-09T21:50:12.851Z,98235.30
2019-05-09T21:52:40.271Z,98238.95
2019-05-09T21:55:07.756Z,98242.61
2019-05-09T21:57:35.190Z,98242.03
2019-05-09T22:00:02.658Z,98245.09
2019-05-09T22:02:30.144Z,98248.63
2019-05-09T22:04:57.580Z,98239.76
2019-05-09T22:07:25.065Z,98241.39
2019-05-09T22:09:52.517Z,98247.32
2019-05-09T22:12:21.012Z,98245.20
2019-05-09T22:14:48.488Z,98244.64
2019-05-09T22:17:18.470Z,98253.13
2019-05-09T22:19:45.896Z,98251.81
2019-05-09T22:22:13.374Z,98264.77
2019-05-09T22:24:40.811Z,98257.48
2019-05-09T22:27:08.259Z,98260.39
2019-05-09T22:29:35.698Z,98261.06
2019-05-09T22:32:03.218Z,98267.56
2019-05-09T22:34:30.771Z,98263.61
2019-05-09T22:36:58.267Z,98267.23
2019-05-09T22:39:25.710Z,98267.34
2019-05-09T22:41:53.212Z,98270.47
2019-05-09T22:44:21.029Z,98270.95
2019-05-09T22:46:48.478Z,98272.71
2019-05-09T22:49:15.940Z,98274.54
2019-05-09T22:51:43.362Z,98273.45
2019-05-09T22:54:13.007Z,98273.80
2019-05-09T22:56:38.305Z,98270.56
2019-05-09T22:59:05.785Z,98284.64
2019-05-09T23:01:33.868Z,98278.80
2019-05-09T23:04:01.325Z,98279.23
2019-05-09T23:06:28.797Z,98288.28
2019-05-09T23:08:56.267Z,98288.17
2019-05-09T23:11:23.704Z,98281.88
2019-05-09T23:13:52.115Z,98285.95
2019-05-09T23:16:20.260Z,98282.88
2019-05-09T23:18:47.721Z,98283.53
2019-05-09T23:21:15.190Z,98288.95
2019-05-09T23:23:42.666Z,98291.45
2019-05-09T23:26:10.112Z,98293.40
2019-05-09T23:28:37.622Z,98290.08
2019-05-09T23:31:05.081Z,98293.64
2019-05-09T23:33:32.533Z,98295.30
2019-05-09T23:35:59.979Z,98294.92
2019-05-09T23:38:27.442Z,98300.05
2019-05-09T23:40:54.876Z,98296.69
2019-05-09T23:43:22.367Z,98296.28
2019-05-09T23:45:49.848Z,98297.05
2019-05-09T23:48:17.325Z,98301.93
2019-05-09T23:50:44.829Z,98304.54
2019-05-09T23:53:12.417Z,98302.89
2019-05-09T23:55:45.515Z,98308.89
2019-05-09T23:58:18.521Z,98301.27
